Time;durP1;ratioP1;P1;durP2;ratioP2;P2;SDS_P1;SDS_P2;PMS_P1;PMS_P2;Temp;Humidity;BMP_temperature;BMP_pressure;BME280_temperature;BME280_humidity;BME280_pressure;Samples;Min_cycle;Max_cycle;Signal;HPM_P1;HPM_P2
2023/10/22 00:00:49;;;;;;;1.80;1.33;;;13.50;99.90;;;;;;4949968;29;20197;-72
2023/10/22 00:03:15;;;;;;;2.20;1.30;;;13.40;99.90;;;;;;4951499;28;20222;-72
2023/10/22 00:05:43;;;;;;;1.30;1.20;;;13.30;99.90;;;;;;4948835;29;20191;-72
2023/10/22 00:08:10;;;;;;;4.03;1.40;;;13.40;99.90;;;;;;4951365;29;20226;-71
2023/10/22 00:10:37;;;;;;;2.10;1.30;;;13.50;99.90;;;;;;4948684;29;20191;-71
2023/10/22 00:13:04;;;;;;;2.27;1.57;;;13.50;99.90;;;;;;4950172;29;20207;-72
2023/10/22 00:15:31;;;;;;;3.30;1.30;;;13.50;99.90;;;;;;4948377;29;20630;-72
2023/10/22 00:17:58;;;;;;;3.13;1.20;;;13.60;99.90;;;;;;4950346;29;20289;-71
2023/10/22 00:20:25;;;;;;;1.73;1.10;;;13.40;99.90;;;;;;4951247;28;20195;-72
2023/10/22 00:22:52;;;;;;;4.17;1.70;;;13.50;99.90;;;;;;4950300;29;20209;-72
2023/10/22 00:25:19;;;;;;;1.27;1.17;;;13.40;99.90;;;;;;4948945;29;20203;-72
2023/10/22 00:27:46;;;;;;;1.37;1.13;;;13.50;99.90;;;;;;4949501;29;20274;-71
2023/10/22 00:30:13;;;;;;;3.17;1.30;;;13.40;99.90;;;;;;4932321;29;20222;-72
2023/10/22 00:32:40;;;;;;;3.50;1.20;;;13.50;99.90;;;;;;4949233;29;20715;-72
2023/10/22 00:35:07;;;;;;;3.47;1.30;;;13.60;99.90;;;;;;4949560;29;20971;-72
2023/10/22 00:37:34;;;;;;;1.43;1.33;;;13.70;99.90;;;;;;4947356;28;20261;-72
2023/10/22 00:40:03;;;;;;;1.90;1.37;;;13.60;99.90;;;;;;4932687;29;20305;-72
2023/10/22 00:42:30;;;;;;;2.63;1.50;;;13.50;99.90;;;;;;4950389;28;20246;-72
2023/10/22 00:44:57;;;;;;;3.17;1.00;;;13.50;99.90;;;;;;4951597;28;20683;-72
2023/10/22 00:47:24;;;;;;;1.30;1.07;;;13.70;99.90;;;;;;4951642;29;20706;-72
2023/10/22 00:49:51;;;;;;;1.53;1.20;;;13.80;99.90;;;;;;4951282;29;20628;-72
2023/10/22 00:52:19;;;;;;;2.30;1.40;;;13.80;99.90;;;;;;4947555;29;20786;-72
2023/10/22 00:54:47;;;;;;;1.53;1.10;;;13.80;99.90;;;;;;4952306;29;20677;-72
2023/10/22 00:57:14;;;;;;;1.20;1.10;;;13.90;99.90;;;;;;4953171;29;20656;-72
2023/10/22 00:59:42;;;;;;;1.70;1.37;;;13.80;99.90;;;;;;4952588;29;20684;-73
2023/10/22 01:02:09;;;;;;;3.10;1.40;;;13.90;99.90;;;;;;4950366;28;20199;-73
2023/10/22 01:04:36;;;;;;;1.40;1.30;;;14.00;99.90;;;;;;4951396;29;20187;-73
2023/10/22 01:07:05;;;;;;;3.30;1.30;;;14.10;99.90;;;;;;4951669;28;20222;-76
2023/10/22 01:09:33;;;;;;;3.03;1.30;;;14.00;99.90;;;;;;4950464;29;20194;-72
2023/10/22 01:12:04;;;;;;;1.60;1.43;;;14.00;99.90;;;;;;4950159;28;20203;-75
2023/10/22 01:14:31;;;;;;;1.00;1.00;;;14.00;99.90;;;;;;4949976;29;20281;-75
2023/10/22 01:17:00;;;;;;;1.23;1.00;;;14.10;99.90;;;;;;4947180;29;20263;-72
2023/10/22 01:19:27;;;;;;;2.07;1.30;;;14.00;99.90;;;;;;4952044;29;20218;-69
2023/10/22 01:21:54;;;;;;;2.97;1.30;;;14.00;99.90;;;;;;4935690;29;20195;-70
2023/10/22 01:24:21;;;;;;;2.23;1.23;;;13.90;99.90;;;;;;4952633;29;20240;-69
2023/10/22 01:26:48;;;;;;;2.70;1.23;;;13.90;99.90;;;;;;4952097;29;20287;-69
2023/10/22 01:29:15;;;;;;;2.67;1.30;;;13.90;99.90;;;;;;4950008;29;20226;-70
2023/10/22 01:31:42;;;;;;;1.30;1.20;;;13.90;99.90;;;;;;4947970;29;20202;-69
2023/10/22 01:34:09;;;;;;;1.20;1.20;;;13.90;99.90;;;;;;4937683;29;20207;-68
2023/10/22 01:36:35;;;;;;;2.80;1.23;;;14.00;99.90;;;;;;4950439;29;20683;-69
2023/10/22 01:39:03;;;;;;;3.10;1.60;;;13.90;99.90;;;;;;4951703;29;20215;-68
2023/10/22 01:41:30;;;;;;;2.13;1.30;;;14.00;99.90;;;;;;4950944;29;20670;-67
2023/10/22 01:43:58;;;;;;;1.93;1.03;;;13.90;99.90;;;;;;4950971;29;20194;-68
2023/10/22 01:46:25;;;;;;;1.67;1.48;;;13.90;99.90;;;;;;4938024;29;20223;-68
2023/10/22 01:48:52;;;;;;;2.85;1.25;;;13.90;99.90;;;;;;4952323;29;20206;-69
2023/10/22 01:51:19;;;;;;;5.30;1.97;;;13.90;99.90;;;;;;4948580;29;20202;-71
2023/10/22 01:53:46;;;;;;;3.93;1.10;;;13.90;99.90;;;;;;4934340;29;20825;-72
2023/10/22 01:56:14;;;;;;;3.13;1.50;;;13.90;99.90;;;;;;4950537;28;20282;-68
2023/10/22 01:58:43;;;;;;;3.13;1.23;;;14.00;99.90;;;;;;4950073;29;20218;-69
2023/10/22 02:05:11;;;;;;;1.73;1.30;;;13.90;99.90;;;;;;4953472;29;20189;-68
2023/10/22 02:07:39;;;;;;;4.65;1.50;;;14.00;99.90;;;;;;4954262;29;20268;-68
2023/10/22 02:10:08;;;;;;;1.47;1.20;;;14.00;99.90;;;;;;4950695;29;20205;-69
2023/10/22 02:12:35;;;;;;;6.07;1.47;;;14.00;99.90;;;;;;4949867;29;20203;-68
2023/10/22 02:15:02;;;;;;;1.77;1.48;;;14.00;99.90;;;;;;4951926;29;20194;-68
2023/10/22 02:17:29;;;;;;;1.33;1.15;;;14.00;99.90;;;;;;4950105;29;20282;-72
2023/10/22 02:19:56;;;;;;;1.37;1.10;;;14.00;99.90;;;;;;4934768;29;20203;-71
2023/10/22 02:22:23;;;;;;;2.43;1.30;;;14.00;99.90;;;;;;4934986;29;20202;-72
2023/10/22 02:24:51;;;;;;;6.82;1.58;;;14.00;99.90;;;;;;4949377;28;20286;-72
2023/10/22 02:27:18;;;;;;;2.35;1.27;;;14.10;99.90;;;;;;4951371;29;20202;-73
2023/10/22 02:29:45;;;;;;;1.80;1.20;;;13.90;99.90;;;;;;4935454;29;20569;-68
2023/10/22 02:32:12;;;;;;;4.17;1.20;;;13.90;99.90;;;;;;4951029;29;20668;-67
2023/10/22 02:34:40;;;;;;;2.77;1.37;;;13.90;99.90;;;;;;4933724;29;20207;-67
2023/10/22 02:37:07;;;;;;;1.95;1.30;;;13.90;99.90;;;;;;4932618;29;20207;-69
2023/10/22 02:39:34;;;;;;;2.17;1.57;;;13.80;99.90;;;;;;4950450;29;20211;-67
2023/10/22 02:42:01;;;;;;;1.97;1.20;;;13.90;99.90;;;;;;4951664;29;20580;-67
2023/10/22 02:44:28;;;;;;;1.40;1.30;;;13.90;99.90;;;;;;4934579;29;20603;-70
2023/10/22 02:46:56;;;;;;;3.17;1.20;;;13.90;99.90;;;;;;4952284;29;20229;-70
2023/10/22 02:49:23;;;;;;;2.05;1.20;;;13.90;99.90;;;;;;4951810;29;20187;-69
2023/10/22 02:51:52;;;;;;;1.13;1.03;;;14.10;99.90;;;;;;4950676;29;20710;-70
2023/10/22 02:54:19;;;;;;;1.57;1.13;;;14.00;99.90;;;;;;4950395;28;20222;-70
2023/10/22 02:56:46;;;;;;;3.37;1.37;;;14.00;99.90;;;;;;4949534;29;20559;-71
2023/10/22 02:59:14;;;;;;;3.00;1.20;;;13.90;99.90;;;;;;4949977;29;20301;-71
2023/10/22 03:01:41;;;;;;;1.00;1.00;;;14.00;99.90;;;;;;4949674;29;20216;-71
2023/10/22 03:04:08;;;;;;;2.97;1.30;;;14.00;99.90;;;;;;4934450;29;20195;-71
2023/10/22 03:06:35;;;;;;;1.97;1.30;;;13.90;99.90;;;;;;4950280;28;20557;-67
2023/10/22 03:09:03;;;;;;;4.73;1.30;;;14.00;99.90;;;;;;4930769;29;20298;-66
2023/10/22 03:11:30;;;;;;;4.70;1.27;;;14.00;99.90;;;;;;4933908;29;20203;-66
2023/10/22 03:13:57;;;;;;;1.40;1.30;;;14.00;99.90;;;;;;4934190;29;20571;-66
2023/10/22 03:16:24;;;;;;;2.30;1.20;;;14.00;99.90;;;;;;4950647;29;20230;-69
2023/10/22 03:18:52;;;;;;;2.25;1.25;;;13.90;99.90;;;;;;4943324;29;20242;-68
2023/10/22 03:21:20;;;;;;;2.27;1.30;;;13.90;99.90;;;;;;4950660;28;20201;-68
2023/10/22 03:23:47;;;;;;;3.57;1.10;;;13.90;99.90;;;;;;4953649;28;20195;-71
2023/10/22 03:26:16;;;;;;;1.10;1.00;;;13.90;99.90;;;;;;4950470;29;20277;-71
2023/10/22 03:28:44;;;;;;;1.50;1.37;;;13.90;99.90;;;;;;4937810;29;20194;-70
2023/10/22 03:31:12;;;;;;;1.42;1.20;;;13.90;99.90;;;;;;4944630;28;20205;-70
2023/10/22 03:33:39;;;;;;;1.17;1.10;;;13.80;99.90;;;;;;4949872;29;20195;-70
2023/10/22 03:36:11;;;;;;;2.03;1.30;;;13.80;99.90;;;;;;4949064;29;20195;-71
2023/10/22 03:38:38;;;;;;;3.40;1.33;;;13.70;99.90;;;;;;4949819;29;20302;-68
2023/10/22 03:41:05;;;;;;;1.83;1.20;;;13.70;99.90;;;;;;4951185;29;20190;-68
2023/10/22 03:43:34;;;;;;;1.10;1.00;;;13.60;99.90;;;;;;4949022;28;20191;-69
2023/10/22 03:46:02;;;;;;;2.60;1.37;;;13.60;99.90;;;;;;4948230;29;20297;-68
2023/10/22 03:48:29;;;;;;;1.20;1.10;;;13.50;99.90;;;;;;4950976;29;20214;-70
2023/10/22 03:50:58;;;;;;;1.33;1.23;;;13.50;99.90;;;;;;4950597;29;20694;-69
2023/10/22 03:53:26;;;;;;;3.87;1.20;;;13.50;99.90;;;;;;4949596;29;20199;-69
2023/10/22 03:55:53;;;;;;;2.30;1.00;;;13.50;99.90;;;;;;4950705;29;20235;-69
2023/10/22 03:58:19;;;;;;;1.80;1.07;;;13.50;99.90;;;;;;4949476;29;20219;-69
2023/10/22 04:00:48;;;;;;;4.10;1.30;;;13.40;99.90;;;;;;4952655;28;20253;-69
2023/10/22 04:03:15;;;;;;;2.73;1.20;;;13.40;99.90;;;;;;4951060;28;20188;-69
2023/10/22 04:05:42;;;;;;;1.03;1.03;;;13.30;99.90;;;;;;4949547;29;20652;-69
2023/10/22 04:08:09;;;;;;;2.10;1.20;;;13.20;99.90;;;;;;4950261;29;20198;-69
2023/10/22 04:10:36;;;;;;;2.87;1.43;;;13.10;99.90;;;;;;4950644;28;20225;-69
2023/10/22 04:13:03;;;;;;;1.27;1.10;;;13.00;99.90;;;;;;4948924;28;20250;-68
2023/10/22 04:15:39;;;;;;;1.43;1.03;;;12.90;99.90;;;;;;4949925;29;20548;-69
2023/10/22 04:18:06;;;;;;;3.57;1.30;;;12.80;99.90;;;;;;4955722;28;20194;-68
2023/10/22 04:20:33;;;;;;;1.20;1.10;;;12.80;99.90;;;;;;4949636;28;20199;-68
2023/10/22 04:23:00;;;;;;;1.60;1.10;;;12.70;99.90;;;;;;4948061;29;20203;-68
2023/10/22 04:25:30;;;;;;;1.30;1.07;;;12.70;99.90;;;;;;4948444;29;20273;-68
2023/10/22 04:27:57;;;;;;;2.57;1.20;;;12.60;99.90;;;;;;4949239;29;20273;-67
2023/10/22 04:30:25;;;;;;;3.57;1.20;;;12.60;99.90;;;;;;4949014;28;20246;-68
2023/10/22 04:32:52;;;;;;;1.03;1.00;;;12.50;99.90;;;;;;4947050;29;20564;-68
2023/10/22 04:35:19;;;;;;;1.50;1.10;;;12.50;99.90;;;;;;4950759;28;20563;-69
2023/10/22 04:37:46;;;;;;;1.30;1.20;;;12.40;99.90;;;;;;4931230;29;20191;-71
2023/10/22 04:40:13;;;;;;;1.00;0.90;;;12.30;99.90;;;;;;4948383;29;20279;-71
2023/10/22 04:42:40;;;;;;;2.90;1.30;;;12.30;99.90;;;;;;4950168;29;20254;-73
2023/10/22 04:45:07;;;;;;;2.40;1.20;;;12.30;99.90;;;;;;4950390;29;20242;-73
2023/10/22 04:47:34;;;;;;;3.17;1.20;;;12.30;99.90;;;;;;4949907;28;20195;-73
2023/10/22 04:50:01;;;;;;;1.20;1.10;;;12.30;99.90;;;;;;4949148;29;20195;-73
2023/10/22 04:52:31;;;;;;;4.03;1.60;;;12.30;99.90;;;;;;4949845;28;20229;-73
2023/10/22 04:54:59;;;;;;;5.40;1.13;;;12.20;99.90;;;;;;4947276;29;20218;-72
2023/10/22 04:57:27;;;;;;;2.17;1.10;;;12.20;99.90;;;;;;4947320;29;20269;-73
2023/10/22 04:59:55;;;;;;;1.10;1.00;;;12.20;99.90;;;;;;4949531;29;20210;-72
2023/10/22 05:02:22;;;;;;;3.70;1.10;;;12.20;99.90;;;;;;4949508;29;20199;-72
2023/10/22 05:04:51;;;;;;;1.23;1.13;;;12.20;99.90;;;;;;4947999;28;20206;-72
2023/10/22 05:07:18;;;;;;;1.00;1.00;;;12.30;99.90;;;;;;4948081;28;20278;-72
2023/10/22 05:09:45;;;;;;;1.93;1.20;;;12.20;99.90;;;;;;4949055;28;20285;-72
2023/10/22 05:12:12;;;;;;;1.50;1.17;;;12.20;99.90;;;;;;4950504;29;20343;-72
2023/10/22 05:14:39;;;;;;;3.13;1.10;;;12.20;99.90;;;;;;4947826;29;20611;-71
2023/10/22 05:17:06;;;;;;;3.03;1.30;;;12.20;99.90;;;;;;4949926;29;20602;-71
2023/10/22 05:19:35;;;;;;;2.00;1.27;;;12.20;99.90;;;;;;4930225;29;20214;-71
2023/10/22 05:22:04;;;;;;;2.37;0.93;;;12.20;99.90;;;;;;4948201;29;20230;-71
2023/10/22 05:24:32;;;;;;;1.93;1.00;;;12.10;99.90;;;;;;4948351;29;20711;-72
2023/10/22 05:26:59;;;;;;;1.43;1.33;;;12.10;99.90;;;;;;4949337;28;20282;-72
2023/10/22 05:29:28;;;;;;;2.13;1.20;;;12.10;99.90;;;;;;4946558;29;20191;-72
2023/10/22 05:31:55;;;;;;;2.67;1.00;;;12.00;99.90;;;;;;4951361;28;20536;-71
2023/10/22 05:34:22;;;;;;;1.13;1.00;;;12.10;99.90;;;;;;4957191;28;20258;-72
2023/10/22 05:36:49;;;;;;;1.90;1.10;;;12.20;99.90;;;;;;4952964;29;20249;-73
2023/10/22 05:39:16;;;;;;;3.30;1.10;;;12.30;99.90;;;;;;4952242;28;20667;-72
2023/10/22 05:41:43;;;;;;;1.17;0.93;;;12.20;99.90;;;;;;4944163;29;20623;-71
2023/10/22 05:44:10;;;;;;;3.00;1.13;;;12.30;99.90;;;;;;4935085;29;20208;-72
2023/10/22 05:46:36;;;;;;;2.20;1.10;;;12.30;99.90;;;;;;4953077;29;20261;-72
2023/10/22 05:49:04;;;;;;;1.07;1.00;;;12.20;99.90;;;;;;4952593;29;20722;-72
2023/10/22 05:51:32;;;;;;;1.93;1.20;;;12.20;99.90;;;;;;4951707;29;20215;-71
2023/10/22 05:53:59;;;;;;;2.67;1.07;;;12.20;99.90;;;;;;4938183;29;20207;-73
2023/10/22 05:56:32;;;;;;;1.30;1.10;;;12.20;99.90;;;;;;4949961;29;20633;-73
2023/10/22 05:59:04;;;;;;;2.20;0.83;;;12.20;99.90;;;;;;4952319;29;20207;-72
2023/10/22 06:01:31;;;;;;;2.63;1.20;;;12.20;99.90;;;;;;4952382;28;20667;-72
2023/10/22 06:03:58;;;;;;;3.23;1.30;;;12.20;99.90;;;;;;4951755;29;20190;-74
2023/10/22 06:06:25;;;;;;;2.87;0.90;;;12.30;99.90;;;;;;4952612;29;20293;-73
2023/10/22 06:08:52;;;;;;;1.70;1.10;;;12.30;99.90;;;;;;4951469;29;20199;-73
2023/10/22 06:11:19;;;;;;;3.40;1.10;;;12.30;99.90;;;;;;4952852;29;20199;-71
2023/10/22 06:13:46;;;;;;;1.17;1.00;;;12.30;99.90;;;;;;4951365;29;20726;-72
2023/10/22 06:16:13;;;;;;;5.63;1.27;;;12.40;99.90;;;;;;4948744;28;20526;-74
2023/10/22 06:18:41;;;;;;;2.63;1.10;;;12.40;99.90;;;;;;4953593;28;20652;-73
2023/10/22 06:21:12;;;;;;;1.80;0.90;;;12.40;99.90;;;;;;4951352;29;20593;-72
2023/10/22 06:23:39;;;;;;;2.90;1.47;;;12.40;99.90;;;;;;4951990;29;20195;-71
2023/10/22 06:26:13;;;;;;;2.13;0.80;;;12.40;99.90;;;;;;4950535;28;20206;-71
2023/10/22 06:28:40;;;;;;;1.00;0.90;;;12.40;99.90;;;;;;4947762;28;20218;-71
2023/10/22 06:31:10;;;;;;;1.47;0.87;;;12.40;99.90;;;;;;4947543;29;20647;-72
2023/10/22 06:33:38;;;;;;;2.00;1.20;;;12.40;99.90;;;;;;4942667;28;20309;-72
2023/10/22 06:36:16;;;;;;;1.73;1.13;;;12.40;99.90;;;;;;4951356;28;20203;-72
2023/10/22 06:38:45;;;;;;;1.87;1.20;;;12.40;99.90;;;;;;4948191;28;20187;-72
2023/10/22 06:41:16;;;;;;;1.17;0.93;;;12.40;99.90;;;;;;4934065;29;20199;-71
2023/10/22 06:43:44;;;;;;;2.63;2.20;;;12.60;99.90;;;;;;4948932;28;20683;-72
2023/10/22 06:46:11;;;;;;;1.07;0.97;;;12.80;99.90;;;;;;4950588;28;20219;-71
2023/10/22 06:48:39;;;;;;;2.13;0.97;;;13.00;99.90;;;;;;4933006;29;20262;-72
2023/10/22 06:51:10;;;;;;;2.47;1.97;;;13.10;99.90;;;;;;4950660;28;20688;-70
2023/10/22 06:53:39;;;;;;;1.37;0.90;;;13.10;99.90;;;;;;4950632;28;20203;-72
2023/10/22 06:56:06;;;;;;;2.10;1.73;;;13.00;99.90;;;;;;4949047;28;20536;-71
2023/10/22 06:58:33;;;;;;;3.50;1.40;;;13.10;99.90;;;;;;4948029;28;20198;-72
2023/10/22 07:01:05;;;;;;;2.83;1.20;;;13.20;99.90;;;;;;4951267;28;20821;-72
2023/10/22 07:03:34;;;;;;;0.80;0.80;;;13.10;99.90;;;;;;4950003;28;20590;-71
2023/10/22 07:06:01;;;;;;;1.63;1.20;;;13.10;99.90;;;;;;4937076;28;20684;-72
2023/10/22 07:08:28;;;;;;;0.73;0.73;;;13.10;99.90;;;;;;4948670;28;20722;-70
2023/10/22 07:10:56;;;;;;;0.93;0.93;;;13.00;99.90;;;;;;4933819;28;20285;-72
2023/10/22 07:13:24;;;;;;;0.70;0.70;;;13.00;99.90;;;;;;4951978;28;20261;-72
2023/10/22 07:15:52;;;;;;;1.20;1.07;;;13.00;99.90;;;;;;4951413;28;20338;-71
2023/10/22 07:18:20;;;;;;;6.23;1.10;;;13.00;99.90;;;;;;4949235;28;20206;-72
2023/10/22 07:20:47;;;;;;;1.53;1.10;;;13.10;99.90;;;;;;4949522;28;20222;-71
2023/10/22 07:23:15;;;;;;;1.00;1.00;;;13.10;99.90;;;;;;4949680;28;20654;-72
2023/10/22 07:25:43;;;;;;;1.03;1.00;;;13.10;99.90;;;;;;4952113;28;20804;-72
2023/10/22 07:28:15;;;;;;;1.67;1.37;;;13.10;99.90;;;;;;4951620;28;20634;-71
2023/10/22 07:30:49;;;;;;;1.87;1.30;;;13.10;99.90;;;;;;4951121;28;20202;-71
2023/10/22 07:33:17;;;;;;;1.50;1.40;;;13.20;99.90;;;;;;4950499;28;20211;-71
2023/10/22 07:36:00;;;;;;;0.87;0.87;;;13.30;99.90;;;;;;4948333;28;20664;-71
2023/10/22 07:38:33;;;;;;;3.60;1.20;;;13.50;99.90;;;;;;4949777;28;20277;-71
2023/10/22 07:41:00;;;;;;;1.00;1.00;;;13.60;99.90;;;;;;4948857;28;20309;-71
2023/10/22 07:43:29;;;;;;;1.43;1.27;;;13.70;99.90;;;;;;4949935;28;20544;-71
2023/10/22 07:46:04;;;;;;;1.33;1.10;;;13.70;99.90;;;;;;4950375;28;20790;-71
2023/10/22 07:48:32;;;;;;;1.20;1.10;;;13.70;99.90;;;;;;4951231;28;20566;-71
2023/10/22 07:51:13;;;;;;;3.70;1.00;;;13.80;99.90;;;;;;4943926;28;20207;-71
2023/10/22 07:53:40;;;;;;;1.20;1.10;;;13.80;99.90;;;;;;4944690;28;20584;-71
2023/10/22 07:56:09;;;;;;;1.23;1.20;;;14.10;99.90;;;;;;4949464;28;20202;-71
2023/10/22 07:58:37;;;;;;;1.00;1.00;;;14.00;99.90;;;;;;4952140;28;20202;-71
2023/10/22 08:01:06;;;;;;;2.43;1.10;;;13.90;99.90;;;;;;4945068;28;20207;-71
2023/10/22 08:03:33;;;;;;;0.93;0.93;;;13.80;99.90;;;;;;4950333;28;20203;-71
2023/10/22 08:06:02;;;;;;;1.48;1.20;;;13.80;99.90;;;;;;4932683;28;20229;-70
2023/10/22 08:08:30;;;;;;;1.67;1.00;;;13.90;99.90;;;;;;4939666;28;20203;-65
2023/10/22 08:10:58;;;;;;;1.20;1.10;;;13.80;99.90;;;;;;4949301;28;20603;-65
2023/10/22 08:13:26;;;;;;;1.17;1.07;;;13.90;99.90;;;;;;4948515;28;20274;-66
2023/10/22 08:15:53;;;;;;;1.10;1.10;;;13.90;99.90;;;;;;4949387;28;20250;-66
2023/10/22 08:18:20;;;;;;;1.17;1.07;;;13.90;99.90;;;;;;4949508;28;20247;-71
2023/10/22 08:20:48;;;;;;;1.20;1.10;;;13.80;99.90;;;;;;4943259;28;20199;-71
2023/10/22 08:23:15;;;;;;;1.50;1.00;;;13.90;99.90;;;;;;4948740;28;20556;-71
2023/10/22 08:25:52;;;;;;;1.00;0.90;;;13.90;99.90;;;;;;4949431;28;20703;-72
2023/10/22 08:28:19;;;;;;;1.20;1.10;;;14.10;99.90;;;;;;4947579;28;20529;-72
2023/10/22 08:30:47;;;;;;;0.90;0.90;;;14.30;99.90;;;;;;4947108;28;20612;-72
2023/10/22 08:33:15;;;;;;;1.00;0.90;;;14.40;99.90;;;;;;4950402;28;20202;-72
2023/10/22 08:35:43;;;;;;;1.58;1.00;;;14.60;99.90;;;;;;4935468;29;20195;-72
2023/10/22 08:38:13;;;;;;;1.05;0.90;;;14.70;99.90;;;;;;4952103;28;21048;-71
2023/10/22 08:40:43;;;;;;;1.40;1.30;;;14.80;99.90;;;;;;4952064;28;20687;-70
2023/10/22 08:43:15;;;;;;;1.10;1.00;;;14.70;99.90;;;;;;4952648;28;20414;-72
2023/10/22 08:45:46;;;;;;;1.08;1.08;;;14.70;99.90;;;;;;4937845;29;20214;-72
2023/10/22 08:48:26;;;;;;;0.98;0.98;;;14.70;99.90;;;;;;4951753;28;20622;-72
2023/10/22 08:50:56;;;;;;;1.48;1.38;;;14.60;99.90;;;;;;4952249;28;20194;-72
2023/10/22 08:53:24;;;;;;;1.25;1.15;;;14.50;99.90;;;;;;4933574;29;20712;-74
2023/10/22 08:55:50;;;;;;;1.30;1.13;;;15.00;99.90;;;;;;4950322;28;20203;-70
2023/10/22 08:58:20;;;;;;;1.27;1.17;;;15.40;99.90;;;;;;4948844;28;20211;-72
2023/10/22 09:00:49;;;;;;;2.00;1.10;;;15.50;99.90;;;;;;4950283;28;20207;-72
2023/10/22 09:03:19;;;;;;;1.85;1.00;;;15.20;99.90;;;;;;4951458;28;20651;-72
2023/10/22 09:05:47;;;;;;;4.25;1.20;;;15.10;99.90;;;;;;4954164;28;20219;-72
2023/10/22 09:08:15;;;;;;;1.17;1.10;;;15.20;99.90;;;;;;4951556;28;20227;-72
2023/10/22 09:10:42;;;;;;;1.17;1.08;;;15.30;99.90;;;;;;4953244;28;20198;-72
2023/10/22 09:13:22;;;;;;;1.25;1.15;;;15.10;99.90;;;;;;4953543;28;20195;-72
2023/10/22 09:15:52;;;;;;;3.38;1.20;;;15.00;99.90;;;;;;4946496;28;20202;-73
2023/10/22 09:18:19;;;;;;;3.67;1.42;;;14.90;99.90;;;;;;4952949;28;20563;-66
2023/10/22 09:20:46;;;;;;;0.85;0.85;;;14.90;99.90;;;;;;4952251;28;20211;-68
2023/10/22 09:23:23;;;;;;;1.00;1.00;;;14.90;99.90;;;;;;4948989;28;20206;-66
2023/10/22 09:25:53;;;;;;;1.30;1.20;;;14.80;99.90;;;;;;4954736;28;20216;-68
2023/10/22 09:28:25;;;;;;;2.50;1.20;;;15.00;99.90;;;;;;4953870;28;20207;-71
2023/10/22 09:31:00;;;;;;;1.45;1.23;;;15.10;99.90;;;;;;4952193;28;20214;-72
2023/10/22 09:33:37;;;;;;;1.17;1.17;;;15.20;99.90;;;;;;4951820;28;20205;-72
2023/10/22 09:36:14;;;;;;;1.40;1.27;;;15.40;99.90;;;;;;4936267;28;20309;-72
2023/10/22 09:38:45;;;;;;;1.25;1.10;;;15.80;99.90;;;;;;4951710;28;20206;-72
2023/10/22 09:41:25;;;;;;;1.25;1.15;;;15.80;99.90;;;;;;4954570;28;20214;-72
2023/10/22 09:44:00;;;;;;;2.58;1.30;;;15.40;99.90;;;;;;4952377;28;20191;-71
2023/10/22 09:46:32;;;;;;;2.33;1.23;;;15.90;99.90;;;;;;4932223;29;20219;-72
2023/10/22 09:49:03;;;;;;;1.85;1.35;;;15.40;99.90;;;;;;4936083;28;20800;-72
2023/10/22 09:51:35;;;;;;;7.03;1.23;;;15.20;99.90;;;;;;4951723;28;20236;-73
2023/10/22 09:54:06;;;;;;;1.35;1.00;;;15.50;99.90;;;;;;4953316;28;20196;-73
2023/10/22 09:57:08;;;;;;;0.98;0.98;;;15.40;99.90;;;;;;4952054;28;20199;-72
2023/10/22 09:59:36;;;;;;;1.20;1.10;;;15.30;99.90;;;;;;4927383;28;20207;-72
2023/10/22 10:02:04;;;;;;;3.40;1.27;;;15.60;99.90;;;;;;4950940;28;20198;-72
2023/10/22 10:04:33;;;;;;;2.80;1.10;;;15.60;99.90;;;;;;4952114;28;20611;-72
2023/10/22 10:07:03;;;;;;;1.45;1.30;;;15.50;99.90;;;;;;4953212;28;20194;-73
2023/10/22 10:09:33;;;;;;;2.22;1.10;;;15.40;99.90;;;;;;4957279;28;20937;-73
2023/10/22 10:12:04;;;;;;;1.20;1.10;;;15.40;99.90;;;;;;4952321;28;20199;-73
2023/10/22 10:14:48;;;;;;;2.10;1.20;;;15.40;99.90;;;;;;4935405;28;20199;-73
2023/10/22 10:17:19;;;;;;;1.25;1.10;;;15.40;99.90;;;;;;4949876;28;20237;-72
2023/10/22 10:19:47;;;;;;;1.40;1.17;;;15.60;99.90;;;;;;4944874;28;20195;-73
2023/10/22 10:22:40;;;;;;;1.80;1.30;;;15.70;99.90;;;;;;4953380;28;20340;-73
2023/10/22 10:25:32;;;;;;;0.90;0.90;;;15.70;99.90;;;;;;4950537;28;20202;-73
2023/10/22 10:28:03;;;;;;;0.90;0.90;;;15.70;99.90;;;;;;4951990;28;20298;-66
2023/10/22 10:30:31;;;;;;;1.30;1.20;;;15.50;99.90;;;;;;4951695;28;20271;-66
2023/10/22 10:32:59;;;;;;;1.20;1.10;;;15.60;99.90;;;;;;4952832;28;20213;-66
2023/10/22 10:35:46;;;;;;;0.90;0.90;;;16.00;99.90;;;;;;4952652;28;20214;-66
2023/10/22 10:38:13;;;;;;;3.97;2.55;;;16.00;99.90;;;;;;4926993;29;20935;-72
2023/10/22 10:40:42;;;;;;;3.30;2.15;;;15.90;99.90;;;;;;4946115;28;20559;-72
2023/10/22 10:43:09;;;;;;;2.28;1.60;;;15.70;99.90;;;;;;4934559;28;20199;-71
2023/10/22 10:45:43;;;;;;;1.95;1.50;;;16.00;99.90;;;;;;4950538;28;20215;-72
2023/10/22 10:48:43;;;;;;;1.92;1.40;;;16.30;99.90;;;;;;4951565;28;20199;-69
2023/10/22 10:51:24;;;;;;;5.40;2.40;;;16.20;99.90;;;;;;4946973;28;20602;-70
2023/10/22 10:54:01;;;;;;;1.65;1.55;;;16.30;99.90;;;;;;4946629;28;20206;-72
2023/10/22 10:56:45;;;;;;;3.33;1.02;;;16.00;99.90;;;;;;4950405;28;20215;-71
2023/10/22 10:59:32;;;;;;;2.00;1.90;;;15.90;99.90;;;;;;4934247;28;20225;-71
2023/10/22 11:02:11;;;;;;;3.15;1.13;;;15.90;99.90;;;;;;4933455;28;20225;-71
2023/10/22 11:04:44;;;;;;;1.10;1.10;;;15.80;99.90;;;;;;4936098;29;20238;-71
2023/10/22 11:07:12;;;;;;;1.45;1.35;;;15.80;99.90;;;;;;4953525;28;20679;-71
2023/10/22 11:09:54;;;;;;;3.28;1.60;;;15.80;99.90;;;;;;4945097;28;20198;-71
2023/10/22 11:12:21;;;;;;;1.20;1.10;;;15.90;99.90;;;;;;4950606;28;20269;-71
2023/10/22 11:14:55;;;;;;;1.20;1.10;;;15.90;99.90;;;;;;4949782;28;20187;-69
2023/10/22 11:17:23;;;;;;;2.75;1.55;;;15.90;99.90;;;;;;4949917;28;20285;-72
2023/10/22 11:19:53;;;;;;;1.00;1.00;;;16.20;99.90;;;;;;4945445;28;20724;-71
2023/10/22 11:22:20;;;;;;;4.80;1.30;;;16.30;99.90;;;;;;4946955;28;20637;-70
2023/10/22 11:24:48;;;;;;;1.75;1.30;;;16.80;99.90;;;;;;4947485;28;20267;-72
2023/10/22 11:27:16;;;;;;;3.40;1.60;;;16.90;99.90;;;;;;4932615;29;20187;-72
2023/10/22 11:29:45;;;;;;;1.33;1.23;;;16.70;99.90;;;;;;4932733;29;20188;-72
2023/10/22 11:32:16;;;;;;;1.42;1.33;;;16.80;99.90;;;;;;4930224;29;20833;-72
2023/10/22 11:34:51;;;;;;;3.08;1.90;;;16.90;99.90;;;;;;4929408;29;20192;-72
2023/10/22 11:37:28;;;;;;;1.75;1.30;;;17.00;99.90;;;;;;4945528;28;20203;-72
2023/10/22 11:39:56;;;;;;;3.53;2.30;;;17.20;99.90;;;;;;4930231;29;20199;-66
2023/10/22 11:42:33;;;;;;;1.20;1.10;;;17.60;99.90;;;;;;4947414;28;20187;-66
2023/10/22 11:45:04;;;;;;;2.67;1.92;;;17.10;99.90;;;;;;4946269;28;20215;-66
2023/10/22 11:47:32;;;;;;;2.28;1.55;;;16.90;99.90;;;;;;4929183;29;20203;-72
2023/10/22 11:50:01;;;;;;;2.08;1.88;;;16.70;99.90;;;;;;4945526;28;20201;-72
2023/10/22 11:52:46;;;;;;;2.05;1.25;;;16.60;99.90;;;;;;4946843;28;20239;-72
2023/10/22 11:55:13;;;;;;;1.73;1.27;;;16.40;99.90;;;;;;4929559;28;20291;-72
2023/10/22 11:58:00;;;;;;;1.95;1.42;;;16.40;99.90;;;;;;4932079;29;20271;-72
2023/10/22 12:00:27;;;;;;;3.95;1.65;;;16.50;99.90;;;;;;4946700;28;20211;-72
2023/10/22 12:02:54;;;;;;;3.58;2.00;;;16.00;99.90;;;;;;4932378;29;20607;-72
2023/10/22 12:05:21;;;;;;;1.27;1.02;;;16.10;99.90;;;;;;4945106;28;20671;-72
2023/10/22 12:07:48;;;;;;;1.30;1.20;;;15.70;99.90;;;;;;4931756;29;20258;-72
2023/10/22 12:10:17;;;;;;;3.60;2.15;;;15.70;99.90;;;;;;4946624;28;20668;-73
2023/10/22 12:12:44;;;;;;;2.38;1.77;;;16.00;99.90;;;;;;4945693;28;20204;-72
2023/10/22 12:15:12;;;;;;;6.47;2.38;;;16.30;99.90;;;;;;4944967;28;20266;-72
2023/10/22 12:17:39;;;;;;;8.40;3.47;;;16.20;99.90;;;;;;4946681;28;20735;-71
2023/10/22 12:20:08;;;;;;;8.27;3.13;;;16.50;99.90;;;;;;4928925;29;20542;-71
2023/10/22 12:22:35;;;;;;;5.93;2.80;;;16.60;99.90;;;;;;4930230;29;20241;-72
2023/10/22 12:25:04;;;;;;;5.30;2.10;;;16.90;99.90;;;;;;4931026;29;20213;-72
2023/10/22 12:27:32;;;;;;;1.08;0.98;;;16.90;99.90;;;;;;4931471;29;20196;-72
2023/10/22 12:30:00;;;;;;;1.40;1.30;;;16.50;99.90;;;;;;4930178;29;20260;-72
2023/10/22 12:32:27;;;;;;;3.28;1.80;;;16.40;99.90;;;;;;4930889;29;20199;-72
2023/10/22 12:34:54;;;;;;;1.52;1.42;;;16.40;99.90;;;;;;4943415;28;20566;-70
2023/10/22 12:37:21;;;;;;;2.08;1.30;;;16.20;99.90;;;;;;4929206;29;20200;-75
2023/10/22 12:39:48;;;;;;;1.38;1.20;;;16.00;99.90;;;;;;4934335;29;20561;-72
2023/10/22 12:42:15;;;;;;;2.85;2.25;;;16.20;99.90;;;;;;4930207;29;20227;-72
2023/10/22 12:44:45;;;;;;;1.10;1.00;;;16.40;99.90;;;;;;4928115;29;20191;-72
2023/10/22 12:47:13;;;;;;;2.05;1.27;;;16.20;99.90;;;;;;4945371;28;20195;-72
2023/10/22 12:49:44;;;;;;;2.03;1.80;;;16.20;99.90;;;;;;4931206;29;20618;-72
2023/10/22 12:52:12;;;;;;;3.60;1.98;;;16.60;99.90;;;;;;4930575;29;20265;-72
2023/10/22 12:54:39;;;;;;;13.35;6.68;;;16.50;99.90;;;;;;4929009;29;20223;-72
2023/10/22 12:57:10;;;;;;;8.73;5.05;;;16.40;99.90;;;;;;4928957;29;20235;-72
2023/10/22 12:59:39;;;;;;;6.15;4.05;;;16.80;99.90;;;;;;4943468;28;20329;-66
2023/10/22 13:02:08;;;;;;;1.20;1.10;;;16.60;99.90;;;;;;4929617;29;20223;-66